createdAt,value
2016-07-27T00:00:49.679Z,0
2016-07-27T00:02:04.633Z,0
2016-07-27T00:02:49.741Z,0
2016-07-27T00:04:04.686Z,0
2016-07-27T00:04:49.810Z,0
2016-07-27T00:06:04.796Z,0
2016-07-27T00:06:49.858Z,0
2016-07-27T00:07:49.876Z,0
2016-07-27T00:10:49.959Z,0
2016-07-27T00:11:49.981Z,0
2016-07-27T00:13:04.940Z,0
2016-07-27T00:14:04.958Z,0
2016-07-27T00:14:50.069Z,0
2016-07-27T00:16:05.020Z,0
2016-07-27T00:16:50.124Z,0
2016-07-27T00:17:50.150Z,0
2016-07-27T00:18:50.180Z,0
2016-07-27T00:20:06.775Z,0
2016-07-27T00:20:50.225Z,0
2016-07-27T00:21:50.308Z,0
2016-07-27T00:22:50.290Z,0
2016-07-27T00:23:50.305Z,0
2016-07-27T00:24:50.338Z,0
2016-07-27T00:26:05.290Z,0
2016-07-27T00:26:50.397Z,0
2016-07-27T00:27:50.425Z,0
2016-07-27T00:28:50.447Z,0
2016-07-27T00:29:50.478Z,0
2016-07-27T00:31:05.423Z,0
2016-07-27T00:31:50.537Z,0
2016-07-27T00:33:05.478Z,0
2016-07-27T00:33:50.586Z,0
2016-07-27T00:34:50.615Z,0
2016-07-27T00:36:05.564Z,0
2016-07-27T00:37:05.594Z,0
2016-07-27T00:37:50.704Z,0
2016-07-27T00:38:50.712Z,0
2016-07-27T00:39:50.756Z,0
2016-07-27T00:41:50.804Z,0
2016-07-27T00:43:05.747Z,0
2016-07-27T00:43:50.867Z,0
2016-07-27T00:44:50.885Z,0
2016-07-27T00:45:50.911Z,0
2016-07-27T00:46:50.988Z,0
2016-07-27T00:47:50.962Z,0
2016-07-27T00:48:50.993Z,0
2016-07-27T00:49:51.030Z,0
2016-07-27T00:51:05.963Z,0
2016-07-27T00:52:51.110Z,0
2016-07-27T00:53:51.137Z,0
2016-07-27T00:54:51.157Z,0
2016-07-27T00:55:51.188Z,0
2016-07-27T00:56:51.216Z,0
2016-07-27T00:57:51.236Z,0
2016-07-27T01:00:06.212Z,0
2016-07-27T01:01:52.037Z,0
2016-07-27T01:02:51.373Z,0
2016-07-27T01:03:51.391Z,0
2016-07-27T01:05:06.390Z,0
2016-07-27T01:05:51.455Z,0
2016-07-27T01:06:51.489Z,0
2016-07-27T01:08:51.540Z,0
2016-07-27T01:09:51.562Z,0
2016-07-27T01:10:51.585Z,0
2016-07-27T01:12:51.644Z,0
2016-07-27T01:13:51.668Z,0
2016-07-27T01:14:51.695Z,0
2016-07-27T01:16:06.655Z,0
2016-07-27T01:17:06.662Z,0
2016-07-27T01:17:51.773Z,0
2016-07-27T01:20:06.749Z,0
2016-07-27T01:20:51.855Z,0
2016-07-27T01:21:51.881Z,0
2016-07-27T01:23:06.827Z,0
2016-07-27T01:23:51.936Z,0
2016-07-27T01:25:51.990Z,0
2016-07-27T01:26:52.018Z,0
2016-07-27T01:27:52.041Z,0
2016-07-27T01:28:52.085Z,0
2016-07-27T01:29:52.093Z,0
2016-07-27T01:31:07.048Z,0
2016-07-27T01:32:52.176Z,0
2016-07-27T01:34:07.128Z,0
2016-07-27T01:35:07.153Z,0
2016-07-27T01:35:52.272Z,0
2016-07-27T01:36:52.294Z,0
2016-07-27T01:37:52.313Z,0
2016-07-27T01:39:07.263Z,0
2016-07-27T01:40:07.284Z,0
2016-07-27T01:40:52.405Z,0
2016-07-27T01:41:52.437Z,0
2016-07-27T01:42:52.446Z,0
2016-07-27T01:43:52.473Z,0
2016-07-27T01:45:07.423Z,0
2016-07-27T01:45:52.525Z,0
2016-07-27T01:46:52.559Z,0
2016-07-27T01:47:52.629Z,0
2016-07-27T01:48:52.610Z,0
2016-07-27T01:49:52.643Z,0
2016-07-27T01:51:07.584Z,0
2016-07-27T01:51:52.687Z,0
2016-07-27T01:53:07.634Z,0
2016-07-27T01:53:52.744Z,0
2016-07-27T01:55:07.683Z,0
2016-07-27T01:55:52.802Z,0
2016-07-27T01:56:52.828Z,0
2016-07-27T01:57:52.851Z,0
2016-07-27T01:59:07.801Z,0
2016-07-27T01:59:52.905Z,0
2016-07-27T02:00:52.934Z,0
2016-07-27T02:02:07.884Z,0
2016-07-27T02:02:52.980Z,0
2016-07-27T02:04:53.735Z,0
2016-07-27T02:06:07.977Z,0
2016-07-27T02:06:53.094Z,0
2016-07-27T02:07:53.117Z,0
2016-07-27T02:09:08.067Z,0
2016-07-27T02:09:53.169Z,0
2016-07-27T02:11:08.171Z,0
2016-07-27T02:11:53.227Z,0
2016-07-27T02:12:53.255Z,0
2016-07-27T02:14:08.208Z,0
2016-07-27T02:14:53.304Z,0
2016-07-27T02:15:53.388Z,0
2016-07-27T02:16:53.356Z,0
2016-07-27T02:17:53.388Z,0
2016-07-27T02:18:53.421Z,0
2016-07-27T02:20:08.359Z,0
2016-07-27T02:20:53.468Z,0
2016-07-27T02:21:54.199Z,0
2016-07-27T02:22:53.523Z,0
2016-07-27T02:23:53.739Z,0
2016-07-27T02:26:08.521Z,0
2016-07-27T02:26:53.628Z,0
2016-07-27T02:27:53.664Z,0
2016-07-27T02:28:53.666Z,0
2016-07-27T02:30:53.741Z,0
2016-07-27T02:31:53.811Z,0
2016-07-27T02:32:53.791Z,0
2016-07-27T02:33:53.821Z,0
2016-07-27T02:34:54.543Z,0
2016-07-27T02:36:08.793Z,0
2016-07-27T02:36:53.898Z,0
2016-07-27T02:41:54.024Z,0
2016-07-27T02:42:54.061Z,0
2016-07-27T02:43:54.078Z,0
2016-07-27T02:44:54.106Z,0
2016-07-27T02:45:54.140Z,0
2016-07-27T02:46:54.159Z,0
2016-07-27T02:48:09.124Z,0
2016-07-27T02:48:54.212Z,0
2016-07-27T02:49:54.937Z,0
2016-07-27T02:50:54.277Z,0
2016-07-27T02:51:54.307Z,0
2016-07-27T02:52:54.328Z,0
2016-07-27T02:53:54.347Z,0
2016-07-27T02:54:54.384Z,0
2016-07-27T02:55:54.400Z,0
2016-07-27T02:56:54.436Z,0
2016-07-27T02:58:09.377Z,0
2016-07-27T02:58:54.538Z,0
2016-07-27T02:59:55.201Z,0
2016-07-27T03:00:54.534Z,0
2016-07-27T03:01:54.563Z,0
2016-07-27T03:02:54.590Z,0
2016-07-27T03:03:54.613Z,0
2016-07-27T03:06:09.593Z,0
2016-07-27T03:06:55.532Z,0
2016-07-27T03:07:54.740Z,5
2016-07-27T03:08:54.743Z,5
2016-07-27T03:10:09.695Z,5
2016-07-27T03:11:09.722Z,5
2016-07-27T03:11:54.825Z,5
2016-07-27T03:12:54.857Z,5
2016-07-27T03:14:24.731Z,5
2016-07-27T03:14:54.969Z,5
2016-07-27T03:15:54.943Z,5
2016-07-27T03:17:09.890Z,5
2016-07-27T03:17:54.988Z,5
2016-07-27T03:19:55.051Z,5
2016-07-27T03:20:55.064Z,5
2016-07-27T03:21:56.761Z,5
2016-07-27T03:22:55.128Z,5
2016-07-27T03:23:55.152Z,5
2016-07-27T03:24:55.176Z,10
2016-07-27T03:25:55.202Z,10
2016-07-27T03:26:55.236Z,10
2016-07-27T03:27:55.249Z,10
2016-07-27T03:31:10.265Z,15
2016-07-27T03:31:55.364Z,15
2016-07-27T03:32:55.392Z,15
2016-07-27T03:33:55.411Z,15
2016-07-27T03:34:55.444Z,20
2016-07-27T03:35:55.477Z,20
2016-07-27T03:38:10.444Z,20
2016-07-27T03:38:55.549Z,25
2016-07-27T03:41:10.515Z,25
2016-07-27T03:41:55.621Z,25
2016-07-27T03:43:10.576Z,25
2016-07-27T03:43:55.679Z,25
2016-07-27T03:44:55.699Z,25
2016-07-27T03:46:10.663Z,30
2016-07-27T03:46:55.762Z,30
2016-07-27T03:47:55.781Z,35
2016-07-27T03:48:55.810Z,40
2016-07-27T03:49:55.838Z,45
2016-07-27T03:50:55.876Z,50
2016-07-27T03:52:55.924Z,50
2016-07-27T03:53:55.942Z,55
2016-07-27T03:55:10.898Z,55
2016-07-27T03:56:10.919Z,55
2016-07-27T03:56:56.026Z,60
2016-07-27T03:57:56.051Z,60
2016-07-27T03:58:56.078Z,60
2016-07-27T03:59:56.102Z,60
2016-07-27T04:01:11.056Z,65
2016-07-27T04:01:56.174Z,65
2016-07-27T04:02:56.184Z,70
2016-07-27T04:03:56.217Z,75
2016-07-27T04:04:56.247Z,75
2016-07-27T04:05:56.271Z,75
2016-07-27T04:07:56.330Z,80
2016-07-27T04:08:56.346Z,85
2016-07-27T04:09:56.393Z,85
2016-07-27T04:10:56.405Z,90
2016-07-27T04:11:56.431Z,90
2016-07-27T04:12:56.463Z,90
2016-07-27T04:14:11.418Z,90
2016-07-27T04:14:56.521Z,90
2016-07-27T04:15:56.538Z,90
2016-07-27T04:17:56.585Z,95
2016-07-27T04:18:56.684Z,100
2016-07-27T04:21:11.643Z,100
2016-07-27T04:21:56.694Z,100
2016-07-27T04:23:56.752Z,100
2016-07-27T04:24:56.774Z,100
2016-07-27T04:26:26.648Z,105
2016-07-27T04:26:56.838Z,105
2016-07-27T04:27:56.869Z,110
2016-07-27T04:29:11.807Z,115
2016-07-27T04:30:26.751Z,110
2016-07-27T04:30:57.642Z,110
2016-07-27T04:31:56.964Z,115
2016-07-27T04:33:11.920Z,115
2016-07-27T04:33:57.024Z,120
2016-07-27T04:34:57.051Z,125
2016-07-27T04:35:57.077Z,125
2016-07-27T04:37:57.125Z,140
2016-07-27T04:38:57.161Z,150
2016-07-27T04:39:57.188Z,160
2016-07-27T04:40:57.216Z,165
2016-07-27T04:41:57.243Z,165
2016-07-27T04:42:57.269Z,165
2016-07-27T04:43:57.288Z,170
2016-07-27T04:44:57.324Z,175
2016-07-27T04:45:57.355Z,185
2016-07-27T04:46:57.381Z,185
2016-07-27T04:49:12.354Z,205
2016-07-27T04:49:57.460Z,205
2016-07-27T04:50:58.167Z,230
2016-07-27T04:52:57.539Z,290
2016-07-27T04:53:57.560Z,460
2016-07-27T04:54:57.599Z,530
2016-07-27T04:56:12.540Z,520
2016-07-27T04:56:57.657Z,525
2016-07-27T04:57:57.662Z,520
2016-07-27T04:59:12.631Z,425
2016-07-27T04:59:57.730Z,355
2016-07-27T05:01:57.792Z,395
2016-07-27T05:02:57.809Z,465
2016-07-27T05:03:57.845Z,500
2016-07-27T05:05:12.792Z,520
2016-07-27T05:05:57.902Z,525
2016-07-27T05:06:57.930Z,530
2016-07-27T05:07:58.009Z,505
2016-07-27T05:08:59.045Z,490
2016-07-27T05:10:12.946Z,500
2016-07-27T05:11:12.970Z,505
2016-07-27T05:11:58.080Z,505
2016-07-27T05:12:58.100Z,540
2016-07-27T05:14:13.061Z,530
2016-07-27T05:15:28.009Z,555
2016-07-27T05:15:58.204Z,570
2016-07-27T05:16:58.227Z,600
2016-07-27T05:17:58.268Z,620
2016-07-27T05:20:28.159Z,630
2016-07-27T05:21:13.326Z,630
2016-07-27T05:21:58.372Z,625
2016-07-27T05:22:58.419Z,660
2016-07-27T05:23:59.140Z,690
2016-07-27T05:24:58.474Z,680
2016-07-27T05:25:58.508Z,655
2016-07-27T05:26:58.536Z,675
2016-07-27T05:27:58.565Z,730
2016-07-27T05:29:58.628Z,775
2016-07-27T05:30:58.669Z,775
2016-07-27T05:32:58.724Z,825
2016-07-27T05:34:13.683Z,830
2016-07-27T05:34:58.784Z,850
2016-07-27T05:36:13.751Z,860
2016-07-27T05:36:58.863Z,850
2016-07-27T05:37:58.897Z,860
2016-07-27T05:39:13.864Z,880
2016-07-27T05:40:58.987Z,870
2016-07-27T05:42:13.950Z,885
2016-07-27T05:42:59.051Z,890
2016-07-27T05:43:59.089Z,850
2016-07-27T05:45:14.046Z,885
2016-07-27T05:45:59.157Z,905
2016-07-27T05:46:59.194Z,920
2016-07-27T05:48:14.134Z,930
2016-07-27T05:49:14.173Z,905
2016-07-27T05:49:59.291Z,895
2016-07-27T05:50:59.318Z,875
2016-07-27T05:52:14.285Z,910
2016-07-27T05:53:14.300Z,930
2016-07-27T05:53:59.418Z,970
2016-07-27T05:54:59.453Z,850
2016-07-27T05:55:59.481Z,930
2016-07-27T05:56:59.515Z,900
2016-07-27T05:57:59.547Z,850
2016-07-27T05:58:59.597Z,925
2016-07-27T05:59:59.620Z,985
2016-07-27T06:01:14.570Z,965
2016-07-27T06:01:59.693Z,980
2016-07-27T06:02:59.711Z,990
2016-07-27T06:03:59.760Z,870
2016-07-27T06:04:59.776Z,955
2016-07-27T06:05:59.821Z,930
2016-07-27T06:06:59.853Z,745
2016-07-27T06:08:14.808Z,995
2016-07-27T06:09:14.852Z,915
2016-07-27T06:09:59.996Z,865
2016-07-27T06:11:14.914Z,780
2016-07-27T06:12:14.996Z,825
2016-07-27T06:13:00.051Z,885
2016-07-27T06:14:00.095Z,905
2016-07-27T06:15:00.116Z,950
2016-07-27T06:16:15.075Z,910
2016-07-27T06:17:00.191Z,895
2016-07-27T06:18:15.146Z,815
2016-07-27T06:19:00.262Z,865
2016-07-27T06:20:00.291Z,960
2016-07-27T06:21:00.327Z,990
2016-07-27T06:22:00.399Z,965
2016-07-27T06:23:00.396Z,965
2016-07-27T06:24:15.349Z,985
2016-07-27T06:25:00.459Z,1010
2016-07-27T06:26:00.506Z,1060
2016-07-27T06:27:15.454Z,1020
2016-07-27T06:28:00.563Z,985
2016-07-27T06:29:00.597Z,915
2016-07-27T06:30:00.636Z,780
2016-07-27T06:31:00.711Z,705
2016-07-27T06:32:00.698Z,630
2016-07-27T06:33:15.656Z,735
2016-07-27T06:34:00.760Z,650
2016-07-27T06:35:15.719Z,545
2016-07-27T06:36:15.756Z,610
2016-07-27T06:37:00.859Z,610
2016-07-27T06:38:00.897Z,655
2016-07-27T06:39:00.941Z,675
2016-07-27T06:40:15.889Z,770
2016-07-27T06:41:01.003Z,845
2016-07-27T06:42:01.031Z,940
2016-07-27T06:43:15.994Z,835
2016-07-27T06:44:16.032Z,880
2016-07-27T06:45:01.135Z,855
2016-07-27T06:46:01.170Z,800
2016-07-27T06:47:01.197Z,665
2016-07-27T06:48:01.232Z,630
2016-07-27T06:49:01.264Z,605
2016-07-27T06:50:01.306Z,785
2016-07-27T06:51:01.339Z,715
2016-07-27T06:53:16.329Z,555
2016-07-27T06:54:16.363Z,520
2016-07-27T06:55:01.481Z,600
2016-07-27T06:56:16.426Z,770
2016-07-27T06:57:16.474Z,775
2016-07-27T06:59:01.617Z,775
2016-07-27T07:00:01.647Z,765
2016-07-27T07:01:01.685Z,750
2016-07-27T07:03:01.746Z,645
2016-07-27T07:04:16.703Z,685
2016-07-27T07:05:16.736Z,685
2016-07-27T07:06:01.848Z,640
2016-07-27T07:07:16.805Z,535
2016-07-27T07:08:01.910Z,535
2016-07-27T07:09:01.949Z,620
2016-07-27T07:10:01.984Z,675
2016-07-27T07:11:16.947Z,645
2016-07-27T07:12:02.056Z,600
2016-07-27T07:13:02.136Z,650
2016-07-27T07:14:03.171Z,660
2016-07-27T07:15:02.162Z,520
2016-07-27T07:16:17.114Z,405
2016-07-27T07:17:02.226Z,385
2016-07-27T07:18:02.260Z,475
2016-07-27T07:19:02.290Z,425
2016-07-27T07:20:17.251Z,365
2016-07-27T07:21:02.362Z,360
2016-07-27T07:22:02.458Z,415
2016-07-27T07:23:02.430Z,410
2016-07-27T07:24:02.469Z,365
2016-07-27T07:25:02.498Z,360
2016-07-27T07:26:18.154Z,300
2016-07-27T07:28:02.595Z,290
2016-07-27T07:29:02.633Z,275
2016-07-27T07:30:17.579Z,315
2016-07-27T07:31:02.842Z,395
2016-07-27T07:33:17.681Z,380
2016-07-27T07:34:02.802Z,375
2016-07-27T07:35:02.820Z,505
2016-07-27T07:36:17.782Z,520
2016-07-27T07:37:02.884Z,510
2016-07-27T07:38:02.924Z,490
2016-07-27T07:39:17.877Z,525
2016-07-27T07:40:03.000Z,535
2016-07-27T07:41:03.026Z,430
2016-07-27T07:42:03.062Z,380
2016-07-27T07:43:18.008Z,375
2016-07-27T07:44:03.116Z,350
2016-07-27T07:45:03.160Z,340
2016-07-27T07:46:18.099Z,315
2016-07-27T07:47:03.220Z,300
2016-07-27T07:48:18.177Z,295
2016-07-27T07:49:18.210Z,275
2016-07-27T07:50:03.322Z,265
2016-07-27T07:51:18.270Z,250
2016-07-27T07:52:03.379Z,240
2016-07-27T07:53:03.409Z,230
2016-07-27T07:54:18.368Z,220
2016-07-27T07:55:18.415Z,210
2016-07-27T07:56:03.504Z,205
2016-07-27T07:57:03.556Z,195
2016-07-27T07:58:03.576Z,185
2016-07-27T07:59:18.533Z,170
2016-07-27T08:00:04.349Z,160
2016-07-27T08:01:18.597Z,150
2016-07-27T08:02:03.716Z,150
2016-07-27T08:03:03.738Z,145
2016-07-27T08:04:03.786Z,140
2016-07-27T08:05:03.806Z,135
2016-07-27T08:06:03.830Z,130
2016-07-27T08:07:04.570Z,125
2016-07-27T08:08:03.903Z,125
2016-07-27T08:09:03.934Z,120
2016-07-27T08:10:03.966Z,120
2016-07-27T08:11:04.011Z,120
2016-07-27T08:12:04.027Z,115
2016-07-27T08:13:04.764Z,115
2016-07-27T08:14:04.147Z,115
2016-07-27T08:15:19.044Z,110
2016-07-27T08:16:04.154Z,110
2016-07-27T08:17:04.191Z,110
2016-07-27T08:18:04.225Z,110
2016-07-27T08:19:04.270Z,110
2016-07-27T08:20:19.205Z,105
2016-07-27T08:21:19.232Z,100
2016-07-27T08:22:04.342Z,100
2016-07-27T08:23:19.291Z,100
2016-07-27T08:24:04.403Z,100
2016-07-27T08:25:04.445Z,100
2016-07-27T08:26:05.174Z,105
2016-07-27T08:27:19.471Z,105
2016-07-27T08:28:04.530Z,105
2016-07-27T08:29:04.574Z,105
2016-07-27T08:30:04.599Z,115
2016-07-27T08:31:19.541Z,110
2016-07-27T08:32:04.669Z,110
2016-07-27T08:33:04.694Z,110
2016-07-27T08:34:04.712Z,110
2016-07-27T08:35:19.676Z,110
2016-07-27T08:36:04.785Z,110
2016-07-27T08:37:04.804Z,110
2016-07-27T08:38:04.840Z,110
2016-07-27T08:39:04.888Z,110
2016-07-27T08:41:19.853Z,110
2016-07-27T08:42:04.967Z,110
2016-07-27T08:43:05.046Z,110
2016-07-27T08:44:05.016Z,115
2016-07-27T08:45:05.059Z,115
2016-07-27T08:46:20.012Z,120
2016-07-27T08:47:05.121Z,120
2016-07-27T08:48:05.148Z,125
2016-07-27T08:49:05.179Z,135
2016-07-27T08:50:05.213Z,150
2016-07-27T08:51:05.237Z,160
2016-07-27T08:52:05.270Z,180
2016-07-27T08:53:20.226Z,220
2016-07-27T08:54:05.334Z,270
2016-07-27T08:55:20.285Z,300
2016-07-27T08:56:05.391Z,260
2016-07-27T08:57:05.442Z,240
2016-07-27T08:58:05.460Z,345
2016-07-27T08:59:05.488Z,260
2016-07-27T09:01:06.252Z,245
2016-07-27T09:02:05.590Z,230
2016-07-27T09:03:05.613Z,220
2016-07-27T09:04:05.640Z,220
2016-07-27T09:05:05.665Z,220
2016-07-27T09:06:05.700Z,220
2016-07-27T09:07:05.730Z,230
2016-07-27T09:08:05.763Z,230
2016-07-27T09:09:05.799Z,320
2016-07-27T09:10:05.842Z,250
2016-07-27T09:11:05.866Z,255
2016-07-27T09:12:05.890Z,255
2016-07-27T09:13:05.922Z,255
2016-07-27T09:14:05.958Z,260
2016-07-27T09:15:05.980Z,270
2016-07-27T09:16:06.018Z,270
2016-07-27T09:17:20.962Z,265
2016-07-27T09:18:21.007Z,260
2016-07-27T09:19:21.037Z,265
2016-07-27T09:20:06.194Z,265
2016-07-27T09:21:06.173Z,260
2016-07-27T09:22:06.213Z,260
2016-07-27T09:23:06.279Z,260
2016-07-27T09:24:06.272Z,260
2016-07-27T09:25:21.222Z,255
2016-07-27T09:26:06.330Z,255
2016-07-27T09:27:06.357Z,255
2016-07-27T09:28:06.386Z,250
2016-07-27T09:30:07.159Z,250
2016-07-27T09:31:21.403Z,255
2016-07-27T09:32:06.523Z,265
2016-07-27T09:33:06.547Z,285
2016-07-27T09:34:21.498Z,255
2016-07-27T09:35:06.617Z,255
2016-07-27T09:36:07.394Z,255
2016-07-27T09:37:06.673Z,255
2016-07-27T09:38:07.538Z,270
2016-07-27T09:39:06.753Z,250
2016-07-27T09:40:21.695Z,235
2016-07-27T09:41:06.804Z,230
2016-07-27T09:42:06.831Z,220
2016-07-27T09:43:06.854Z,205
2016-07-27T09:44:06.890Z,200
2016-07-27T09:45:06.931Z,195
2016-07-27T09:46:21.878Z,185
2016-07-27T09:47:06.986Z,185
2016-07-27T09:48:07.072Z,180
2016-07-27T09:49:07.054Z,175
2016-07-27T09:50:22.012Z,170
2016-07-27T09:51:07.118Z,170
2016-07-27T09:52:07.145Z,165
2016-07-27T09:53:07.179Z,160
2016-07-27T09:54:07.213Z,155
2016-07-27T09:55:07.257Z,150
2016-07-27T09:56:22.199Z,150
2016-07-27T09:57:22.224Z,150
2016-07-27T09:59:07.366Z,155
2016-07-27T10:00:07.419Z,160
2016-07-27T10:01:22.355Z,170
2016-07-27T10:02:07.461Z,180
2016-07-27T10:03:08.196Z,190
2016-07-27T10:05:07.557Z,200
2016-07-27T10:06:22.508Z,210
2016-07-27T10:07:07.612Z,215
2016-07-27T10:08:08.498Z,225
2016-07-27T10:09:07.681Z,225
2016-07-27T10:10:07.719Z,215
2016-07-27T10:11:07.756Z,210
2016-07-27T10:12:07.778Z,205
2016-07-27T10:13:07.809Z,200
2016-07-27T10:15:22.792Z,200
2016-07-27T10:18:22.886Z,205
2016-07-27T10:19:07.998Z,205
2016-07-27T10:20:08.041Z,210
2016-07-27T10:21:22.980Z,215
2016-07-27T10:22:08.100Z,220
2016-07-27T10:23:25.392Z,225
2016-07-27T10:24:08.172Z,230
2016-07-27T10:25:08.195Z,230
2016-07-27T10:26:08.217Z,230
2016-07-27T10:27:23.223Z,230
2016-07-27T10:28:23.206Z,230
2016-07-27T10:29:23.235Z,230
2016-07-27T10:30:23.263Z,230
2016-07-27T10:31:08.375Z,225
2016-07-27T10:32:09.101Z,225
2016-07-27T10:33:08.443Z,220
2016-07-27T10:34:08.485Z,215
2016-07-27T10:35:08.503Z,210
2016-07-27T10:36:08.543Z,210
2016-07-27T10:37:08.567Z,215
2016-07-27T10:38:08.597Z,225
2016-07-27T10:39:08.683Z,265
2016-07-27T10:41:08.687Z,260
2016-07-27T10:42:08.721Z,255
2016-07-27T10:43:08.751Z,255
2016-07-27T10:44:09.505Z,255
2016-07-27T10:45:08.810Z,255
2016-07-27T10:46:08.853Z,255
2016-07-27T10:47:08.879Z,255
2016-07-27T10:48:08.923Z,255
2016-07-27T10:49:08.953Z,255
2016-07-27T10:50:08.985Z,250
2016-07-27T10:51:09.062Z,245
2016-07-27T10:52:09.051Z,245
2016-07-27T10:53:23.995Z,240
2016-07-27T10:54:09.118Z,235
2016-07-27T10:56:09.167Z,230
2016-07-27T10:57:09.197Z,230
2016-07-27T10:58:09.245Z,225
2016-07-27T10:59:24.191Z,225
2016-07-27T11:00:09.293Z,220
2016-07-27T11:01:24.255Z,215
2016-07-27T11:02:09.370Z,210
2016-07-27T11:03:09.388Z,205
2016-07-27T11:04:24.346Z,205
2016-07-27T11:05:09.462Z,195
2016-07-27T11:06:09.484Z,190
2016-07-27T11:07:09.519Z,200
2016-07-27T11:09:25.204Z,215
2016-07-27T11:10:09.638Z,220
2016-07-27T11:11:09.647Z,225
2016-07-27T11:12:09.677Z,230
2016-07-27T11:14:09.756Z,240
2016-07-27T11:15:09.780Z,245
2016-07-27T11:16:09.813Z,250
2016-07-27T11:17:24.763Z,255
2016-07-27T11:18:24.794Z,250
2016-07-27T11:19:09.904Z,250
2016-07-27T11:20:09.937Z,245
2016-07-27T11:22:10.008Z,240
2016-07-27T11:23:10.032Z,240
2016-07-27T11:25:25.019Z,240
2016-07-27T11:26:10.157Z,245
2016-07-27T11:27:10.162Z,250
2016-07-27T11:28:10.197Z,255
2016-07-27T11:29:25.150Z,265
2016-07-27T11:30:10.267Z,300
2016-07-27T11:31:10.292Z,305
2016-07-27T11:32:10.331Z,300
2016-07-27T11:33:10.338Z,290
2016-07-27T11:34:11.225Z,305
2016-07-27T11:35:10.516Z,280
2016-07-27T11:36:25.371Z,270
2016-07-27T11:37:10.490Z,265
2016-07-27T11:38:10.514Z,250
2016-07-27T11:39:25.464Z,240
2016-07-27T11:40:10.581Z,240
2016-07-27T11:41:25.587Z,245
2016-07-27T11:42:10.642Z,290
2016-07-27T11:43:10.683Z,260
2016-07-27T11:44:25.618Z,260
2016-07-27T11:45:10.734Z,215
2016-07-27T11:46:10.773Z,205
2016-07-27T11:47:10.809Z,210
2016-07-27T11:48:25.753Z,245
2016-07-27T11:49:10.874Z,210
2016-07-27T11:50:25.818Z,190
2016-07-27T11:51:10.929Z,185
2016-07-27T11:52:11.007Z,180
2016-07-27T11:54:11.023Z,160
2016-07-27T11:55:11.063Z,155
2016-07-27T11:56:26.020Z,160
2016-07-27T11:57:11.117Z,160
2016-07-27T11:58:11.166Z,160
2016-07-27T11:59:11.196Z,165
2016-07-27T12:00:11.218Z,170
2016-07-27T12:01:11.255Z,170
2016-07-27T12:02:11.281Z,170
2016-07-27T12:03:41.159Z,155
2016-07-27T12:04:11.341Z,150
2016-07-27T12:05:11.379Z,150
2016-07-27T12:06:11.414Z,150
2016-07-27T12:07:11.446Z,150
2016-07-27T12:08:11.592Z,150
2016-07-27T12:09:11.512Z,150
2016-07-27T12:10:26.461Z,155
2016-07-27T12:11:11.570Z,155
2016-07-27T12:12:11.608Z,160
2016-07-27T12:13:11.638Z,160
2016-07-27T12:14:11.665Z,160
2016-07-27T12:15:11.698Z,165
2016-07-27T12:16:11.733Z,165
2016-07-27T12:17:11.763Z,160
2016-07-27T12:18:11.791Z,155
2016-07-27T12:19:11.835Z,150
2016-07-27T12:21:28.219Z,145
2016-07-27T12:22:11.926Z,145
2016-07-27T12:23:11.953Z,150
2016-07-27T12:24:27.605Z,155
2016-07-27T12:25:12.037Z,160
2016-07-27T12:26:12.053Z,160
2016-07-27T12:27:12.089Z,160
2016-07-27T12:28:42.207Z,150
2016-07-27T12:29:12.152Z,135
2016-07-27T12:30:12.172Z,120
2016-07-27T12:31:13.269Z,110
2016-07-27T12:32:12.241Z,100
2016-07-27T12:33:27.195Z,100
2016-07-27T12:34:27.223Z,105
2016-07-27T12:35:12.349Z,110
2016-07-27T12:36:12.369Z,115
2016-07-27T12:37:42.241Z,105
2016-07-27T12:39:12.513Z,100
2016-07-27T12:40:13.202Z,95
2016-07-27T12:41:27.444Z,85
2016-07-27T12:42:12.566Z,85
2016-07-27T12:43:12.587Z,85
2016-07-27T12:44:27.543Z,95
2016-07-27T12:45:28.317Z,100
2016-07-27T12:46:12.682Z,105
2016-07-27T12:47:27.637Z,105
2016-07-27T12:48:12.745Z,105
2016-07-27T12:49:12.773Z,100
2016-07-27T12:50:12.815Z,90
2016-07-27T12:51:12.838Z,90
2016-07-27T12:52:12.864Z,85
2016-07-27T12:53:13.599Z,90
2016-07-27T12:54:27.856Z,105
2016-07-27T12:55:12.971Z,115
2016-07-27T12:56:12.997Z,135
2016-07-27T12:57:27.949Z,140
2016-07-27T12:58:13.073Z,140
2016-07-27T12:59:13.137Z,135
2016-07-27T13:00:28.041Z,135
2016-07-27T13:01:13.149Z,125
2016-07-27T13:02:13.175Z,130
2016-07-27T13:03:13.216Z,130
2016-07-27T13:04:13.243Z,130
2016-07-27T13:05:13.287Z,125
2016-07-27T13:06:13.318Z,110
2016-07-27T13:07:13.343Z,100
2016-07-27T13:08:13.373Z,85
2016-07-27T13:09:13.416Z,80
2016-07-27T13:10:13.432Z,70
2016-07-27T13:12:13.497Z,55
2016-07-27T13:13:13.525Z,55
2016-07-27T13:14:13.564Z,50
2016-07-27T13:15:28.504Z,45
2016-07-27T13:17:13.658Z,40
2016-07-27T13:18:13.685Z,40
2016-07-27T13:20:13.754Z,40
2016-07-27T13:21:13.770Z,40
2016-07-27T13:22:28.731Z,45
2016-07-27T13:23:13.833Z,45
2016-07-27T13:24:13.867Z,45
2016-07-27T13:25:13.903Z,50
2016-07-27T13:26:28.856Z,50
2016-07-27T13:27:13.954Z,55
2016-07-27T13:28:13.994Z,55
2016-07-27T13:29:14.025Z,55
2016-07-27T13:30:14.042Z,55
2016-07-27T13:32:14.110Z,50
2016-07-27T13:33:14.141Z,45
2016-07-27T13:34:14.172Z,40
2016-07-27T13:35:14.207Z,30
2016-07-27T13:36:29.158Z,25
2016-07-27T13:37:29.182Z,20
2016-07-27T13:38:14.294Z,15
2016-07-27T13:39:14.327Z,10
2016-07-27T13:40:14.353Z,10
2016-07-27T13:41:14.394Z,10
2016-07-27T13:42:44.262Z,5
2016-07-27T13:43:14.440Z,5
2016-07-27T13:44:14.489Z,5
2016-07-27T13:45:14.516Z,5
2016-07-27T13:46:15.579Z,5
2016-07-27T13:47:14.572Z,5
2016-07-27T13:48:15.304Z,5
2016-07-27T13:49:14.630Z,0
2016-07-27T13:50:14.662Z,0
2016-07-27T13:51:14.691Z,0
2016-07-27T13:52:14.721Z,0
2016-07-27T13:53:14.745Z,0
2016-07-27T13:54:14.779Z,0
2016-07-27T13:56:29.754Z,0
2016-07-27T13:57:14.873Z,0
2016-07-27T13:58:14.903Z,0
2016-07-27T13:59:14.922Z,0
2016-07-27T14:00:14.953Z,0
2016-07-27T14:01:14.989Z,0
2016-07-27T14:02:15.009Z,0
2016-07-27T14:03:30.657Z,0
2016-07-27T14:04:15.075Z,0
2016-07-27T14:05:15.807Z,0
2016-07-27T14:06:15.146Z,0
2016-07-27T14:07:15.163Z,0
2016-07-27T14:08:15.883Z,0
2016-07-27T14:09:30.144Z,0
2016-07-27T14:10:15.245Z,0
2016-07-27T14:11:15.284Z,0
2016-07-27T14:12:15.315Z,5
2016-07-27T14:13:30.250Z,5
2016-07-27T14:14:15.369Z,5
2016-07-27T14:15:15.389Z,5
2016-07-27T14:16:15.423Z,5
2016-07-27T14:17:15.450Z,5
2016-07-27T14:18:30.394Z,5
2016-07-27T14:19:30.441Z,5
2016-07-27T14:20:15.534Z,5
2016-07-27T14:21:15.564Z,5
2016-07-27T14:22:15.598Z,5
2016-07-27T14:23:15.619Z,5
2016-07-27T14:24:30.568Z,5
2016-07-27T14:25:15.674Z,5
2016-07-27T14:26:15.697Z,5
2016-07-27T14:27:15.732Z,5
2016-07-27T14:28:15.772Z,5
2016-07-27T14:29:16.582Z,5
2016-07-27T14:30:15.807Z,5
2016-07-27T14:31:15.857Z,5
2016-07-27T14:32:30.799Z,5
2016-07-27T14:33:30.815Z,5
2016-07-27T14:34:15.930Z,5
2016-07-27T14:35:30.874Z,5
2016-07-27T14:37:16.012Z,5
2016-07-27T14:38:16.040Z,5
2016-07-27T14:39:16.064Z,5
2016-07-27T14:40:16.103Z,5
2016-07-27T14:41:16.124Z,10
2016-07-27T14:42:16.202Z,10
2016-07-27T14:43:17.323Z,10
2016-07-27T14:44:16.204Z,10
2016-07-27T14:45:16.480Z,10
2016-07-27T14:46:18.012Z,10
2016-07-27T14:47:16.298Z,10
2016-07-27T14:48:17.014Z,10
2016-07-27T14:49:16.350Z,10
2016-07-27T14:50:31.288Z,15
2016-07-27T14:51:31.314Z,15
2016-07-27T14:52:16.448Z,15
2016-07-27T14:53:16.461Z,15
2016-07-27T14:54:16.483Z,20
2016-07-27T14:55:31.441Z,20
2016-07-27T14:56:16.535Z,20
2016-07-27T14:57:16.570Z,25
2016-07-27T14:58:16.594Z,25
2016-07-27T14:59:16.629Z,30
2016-07-27T15:00:16.667Z,30
2016-07-27T15:01:16.703Z,35
2016-07-27T15:02:16.710Z,35
2016-07-27T15:03:31.662Z,40
2016-07-27T15:04:16.762Z,40
2016-07-27T15:05:16.799Z,45
2016-07-27T15:06:31.746Z,50
2016-07-27T15:07:16.894Z,50
2016-07-27T15:08:16.876Z,50
2016-07-27T15:09:16.903Z,55
2016-07-27T15:10:16.927Z,55
2016-07-27T15:11:31.883Z,55
2016-07-27T15:12:31.911Z,55